createdAt,value
2018-09-26T00:00:31.277Z,6.00
2018-09-26T00:01:31.272Z,6.30
2018-09-26T00:02:31.262Z,7.30
2018-09-26T00:03:31.256Z,5.30
2018-09-26T00:04:31.246Z,5.20
2018-09-26T00:05:31.246Z,6.50
2018-09-26T00:06:31.230Z,5.70
2018-09-26T00:07:31.228Z,5.10
2018-09-26T00:08:31.214Z,7.80
2018-09-26T00:09:31.210Z,7.50
2018-09-26T00:10:31.203Z,6.10
2018-09-26T00:11:31.195Z,5.70
2018-09-26T00:12:31.189Z,4.50
2018-09-26T00:13:31.180Z,5.90
2018-09-26T00:14:31.735Z,5.40
2018-09-26T00:15:31.166Z,7.20
2018-09-26T00:16:31.157Z,6.30
2018-09-26T00:17:31.152Z,5.60
2018-09-26T00:18:31.148Z,5.00
2018-09-26T00:19:31.138Z,4.80
2018-09-26T00:20:31.135Z,6.20
2018-09-26T00:21:31.121Z,5.70
2018-09-26T00:22:31.116Z,5.90
2018-09-26T00:23:31.106Z,6.90
2018-09-26T00:24:31.098Z,6.30
2018-09-26T00:25:31.092Z,5.90
2018-09-26T00:26:31.083Z,7.40
2018-09-26T00:27:31.075Z,5.50
2018-09-26T00:28:31.068Z,6.30
2018-09-26T00:29:31.063Z,4.40
2018-09-26T00:30:31.061Z,5.70
2018-09-26T00:31:31.047Z,6.50
2018-09-26T00:32:31.038Z,6.30
2018-09-26T00:33:31.035Z,6.10
2018-09-26T00:34:31.027Z,5.80
2018-09-26T00:35:31.017Z,5.80
2018-09-26T00:36:31.007Z,6.50
2018-09-26T00:37:31.003Z,6.20
2018-09-26T00:38:30.998Z,6.60
2018-09-26T00:39:30.988Z,7.50
2018-09-26T00:40:30.977Z,6.00
2018-09-26T00:41:30.970Z,7.60
2018-09-26T00:42:30.961Z,8.30
2018-09-26T00:43:30.961Z,6.30
2018-09-26T00:44:30.948Z,6.00
2018-09-26T00:45:30.941Z,6.50
2018-09-26T00:46:30.935Z,5.00
2018-09-26T00:47:30.927Z,5.60
2018-09-26T00:48:30.928Z,5.30
2018-09-26T00:49:30.913Z,6.10
2018-09-26T00:50:30.903Z,5.70
2018-09-26T00:51:30.899Z,5.40
2018-09-26T00:52:30.895Z,6.10
2018-09-26T00:53:30.880Z,7.00
2018-09-26T00:54:30.872Z,5.40
2018-09-26T00:55:30.873Z,6.60
2018-09-26T00:56:30.857Z,6.60
2018-09-26T00:57:30.851Z,5.50
2018-09-26T00:58:30.843Z,5.50
2018-09-26T00:59:30.838Z,5.60
2018-09-26T01:00:30.826Z,5.20
2018-09-26T01:01:30.820Z,7.00
2018-09-26T01:02:30.812Z,6.20
2018-09-26T01:03:30.807Z,5.20
2018-09-26T01:04:30.806Z,6.60
2018-09-26T01:05:30.789Z,5.90
2018-09-26T01:06:30.782Z,6.20
2018-09-26T01:07:30.775Z,5.00
2018-09-26T01:08:30.766Z,6.20
2018-09-26T01:09:30.762Z,5.60
2018-09-26T01:10:30.752Z,5.20
2018-09-26T01:11:30.749Z,6.80
2018-09-26T01:12:30.735Z,4.90
2018-09-26T01:13:30.729Z,7.30
2018-09-26T01:14:30.726Z,7.50
2018-09-26T01:15:30.720Z,5.50
2018-09-26T01:16:30.706Z,5.70
2018-09-26T01:17:30.697Z,5.40
2018-09-26T01:18:30.692Z,7.10
2018-09-26T01:19:30.685Z,6.50
2018-09-26T01:20:30.677Z,5.20
2018-09-26T01:21:30.667Z,6.30
2018-09-26T01:22:30.661Z,6.70
2018-09-26T01:23:30.653Z,7.90
2018-09-26T01:24:30.644Z,7.30
2018-09-26T01:25:30.643Z,6.10
2018-09-26T01:26:30.630Z,6.10
2018-09-26T01:27:30.624Z,5.70
2018-09-26T01:28:30.616Z,6.80
2018-09-26T01:29:30.609Z,4.70
2018-09-26T01:30:30.600Z,5.20
2018-09-26T01:31:30.592Z,8.50
2018-09-26T01:32:30.583Z,6.70
2018-09-26T01:33:30.579Z,6.60
2018-09-26T01:34:30.572Z,6.10
2018-09-26T01:35:30.564Z,6.10
2018-09-26T01:36:30.570Z,6.60
2018-09-26T01:37:30.543Z,5.50
2018-09-26T01:38:30.542Z,4.50
2018-09-26T01:39:30.532Z,5.80
2018-09-26T01:40:30.523Z,5.60
2018-09-26T01:41:30.544Z,7.20
2018-09-26T01:42:30.509Z,5.70
2018-09-26T01:43:30.502Z,5.70
2018-09-26T01:44:30.494Z,6.90
2018-09-26T01:45:30.485Z,5.20
2018-09-26T01:46:30.478Z,6.90
2018-09-26T01:47:30.473Z,5.30
2018-09-26T01:48:30.461Z,5.60
2018-09-26T01:49:30.460Z,5.30
2018-09-26T01:50:31.255Z,5.50
2018-09-26T01:51:30.444Z,5.20
2018-09-26T01:52:30.432Z,5.40
2018-09-26T01:53:30.425Z,5.50
2018-09-26T01:54:30.418Z,6.90
2018-09-26T01:55:30.413Z,5.60
2018-09-26T01:56:30.404Z,6.20
2018-09-26T01:57:30.399Z,7.60
2018-09-26T01:58:30.386Z,6.70
2018-09-26T01:59:30.378Z,7.20
2018-09-26T02:00:30.372Z,5.30
2018-09-26T02:01:30.365Z,6.20
2018-09-26T02:02:30.359Z,6.30
2018-09-26T02:03:30.357Z,5.70
2018-09-26T02:04:30.340Z,5.80
2018-09-26T02:05:30.334Z,4.80
2018-09-26T02:06:30.326Z,6.10
2018-09-26T02:07:30.322Z,5.90
2018-09-26T02:08:30.310Z,5.20
2018-09-26T02:09:30.304Z,4.90
2018-09-26T02:10:30.298Z,6.10
2018-09-26T02:11:30.290Z,4.60
2018-09-26T02:12:30.279Z,6.30
2018-09-26T02:13:30.273Z,6.80
2018-09-26T02:14:30.265Z,5.40
2018-09-26T02:15:30.261Z,5.30
2018-09-26T02:16:30.246Z,4.60
2018-09-26T02:17:30.244Z,5.80
2018-09-26T02:18:30.233Z,5.50
2018-09-26T02:19:30.227Z,5.40
2018-09-26T02:20:30.221Z,4.60
2018-09-26T02:21:30.211Z,5.90
2018-09-26T02:22:30.204Z,5.60
2018-09-26T02:23:30.213Z,5.80
2018-09-26T02:24:30.200Z,6.00
2018-09-26T02:25:30.181Z,5.90
2018-09-26T02:26:30.174Z,5.50
2018-09-26T02:27:30.166Z,4.10
2018-09-26T02:28:30.155Z,4.90
2018-09-26T02:29:30.150Z,6.50
2018-09-26T02:30:30.141Z,5.50
2018-09-26T02:31:30.136Z,3.90
2018-09-26T02:32:30.126Z,6.30
2018-09-26T02:33:30.124Z,4.70
2018-09-26T02:34:30.112Z,4.30
2018-09-26T02:35:30.105Z,4.40
2018-09-26T02:36:30.098Z,5.00
2018-09-26T02:37:30.087Z,5.70
2018-09-26T02:38:30.080Z,6.50
2018-09-26T02:39:30.075Z,7.30
2018-09-26T02:40:30.067Z,5.80
2018-09-26T02:41:30.058Z,5.20
2018-09-26T02:42:30.053Z,4.70
2018-09-26T02:43:30.041Z,5.60
2018-09-26T02:44:30.033Z,5.90
2018-09-26T02:45:30.028Z,8.10
2018-09-26T02:46:30.022Z,4.60
2018-09-26T02:47:30.018Z,7.10
2018-09-26T02:48:30.008Z,4.90
2018-09-26T02:49:29.998Z,5.20
2018-09-26T02:50:29.991Z,5.10
2018-09-26T02:51:29.978Z,4.90
2018-09-26T02:52:29.973Z,5.00
2018-09-26T02:53:29.965Z,6.10
2018-09-26T02:54:29.955Z,5.30
2018-09-26T02:55:29.949Z,4.20
2018-09-26T02:56:29.942Z,5.30
2018-09-26T02:57:29.933Z,4.00
2018-09-26T02:58:29.927Z,4.40
2018-09-26T02:59:29.934Z,4.60
2018-09-26T03:00:29.911Z,4.90
2018-09-26T03:01:29.907Z,4.80
2018-09-26T03:02:29.899Z,4.50
2018-09-26T03:03:29.890Z,6.30
2018-09-26T03:04:29.881Z,5.60
2018-09-26T03:05:29.971Z,5.50
2018-09-26T03:06:29.868Z,4.40
2018-09-26T03:07:29.861Z,6.00
2018-09-26T03:08:29.849Z,6.30
2018-09-26T03:09:29.845Z,5.90
2018-09-26T03:10:29.834Z,5.60
2018-09-26T03:11:29.827Z,5.00
2018-09-26T03:12:29.819Z,4.90
2018-09-26T03:13:29.811Z,6.50
2018-09-26T03:14:29.803Z,4.60
2018-09-26T03:15:29.793Z,5.40
2018-09-26T03:16:29.789Z,5.30
2018-09-26T03:17:29.828Z,4.90
2018-09-26T03:18:29.772Z,5.00
2018-09-26T03:19:29.771Z,6.10
2018-09-26T03:20:29.757Z,5.60
2018-09-26T03:21:29.753Z,5.30
2018-09-26T03:22:29.742Z,5.50
2018-09-26T03:23:29.738Z,6.30
2018-09-26T03:24:29.723Z,5.30
2018-09-26T03:25:29.718Z,5.00
2018-09-26T03:26:29.707Z,7.60
2018-09-26T03:27:29.702Z,5.30
2018-09-26T03:28:29.696Z,6.40
2018-09-26T03:29:29.691Z,6.00
2018-09-26T03:30:29.681Z,5.30
2018-09-26T03:31:29.671Z,4.20
2018-09-26T03:32:29.665Z,4.10
2018-09-26T03:33:29.665Z,7.20
2018-09-26T03:34:29.651Z,4.40
2018-09-26T03:35:29.646Z,5.60
2018-09-26T03:36:29.635Z,4.20
2018-09-26T03:37:29.625Z,5.70
2018-09-26T03:38:29.614Z,5.60
2018-09-26T03:39:29.612Z,5.50
2018-09-26T03:40:29.602Z,5.00
2018-09-26T03:41:29.594Z,5.40
2018-09-26T03:42:29.587Z,4.10
2018-09-26T03:43:29.580Z,6.00
2018-09-26T03:44:29.571Z,5.70
2018-09-26T03:45:29.570Z,6.10
2018-09-26T03:46:29.555Z,5.60
2018-09-26T03:47:29.548Z,5.90
2018-09-26T03:48:29.545Z,7.30
2018-09-26T03:49:29.535Z,6.40
2018-09-26T03:50:29.534Z,4.60
2018-09-26T03:51:29.517Z,5.00
2018-09-26T03:52:29.511Z,4.40
2018-09-26T03:53:29.512Z,6.80
2018-09-26T03:54:29.495Z,6.00
2018-09-26T03:55:29.497Z,5.40
2018-09-26T03:56:29.485Z,7.40
2018-09-26T03:57:29.475Z,4.90
2018-09-26T03:58:29.469Z,7.60
2018-09-26T03:59:29.458Z,5.30
2018-09-26T04:00:29.449Z,6.30
2018-09-26T04:01:29.444Z,6.60
2018-09-26T04:02:29.432Z,7.60
2018-09-26T04:03:29.430Z,6.20
2018-09-26T04:04:29.420Z,4.80
2018-09-26T04:05:29.411Z,5.00
2018-09-26T04:06:29.410Z,5.20
2018-09-26T04:07:29.398Z,4.80
2018-09-26T04:08:29.392Z,4.60
2018-09-26T04:09:29.382Z,6.50
2018-09-26T04:10:29.375Z,5.90
2018-09-26T04:11:29.369Z,6.80
2018-09-26T04:12:29.428Z,5.80
2018-09-26T04:13:29.352Z,5.80
2018-09-26T04:14:29.343Z,6.30
2018-09-26T04:15:29.343Z,8.10
2018-09-26T04:16:29.331Z,6.40
2018-09-26T04:17:29.326Z,6.30
2018-09-26T04:18:29.317Z,6.30
2018-09-26T04:19:29.311Z,10.10
2018-09-26T04:20:29.335Z,5.20
2018-09-26T04:21:29.292Z,4.60
2018-09-26T04:22:29.285Z,5.40
2018-09-26T04:23:29.277Z,4.50
2018-09-26T04:24:29.272Z,6.30
2018-09-26T04:25:29.261Z,5.30
2018-09-26T04:26:29.405Z,5.00
2018-09-26T04:27:29.347Z,6.20
2018-09-26T04:28:29.238Z,7.20
2018-09-26T04:29:29.229Z,5.40
2018-09-26T04:30:29.287Z,5.40
2018-09-26T04:31:29.217Z,6.90
2018-09-26T04:32:29.306Z,5.60
2018-09-26T04:33:29.283Z,5.90
2018-09-26T04:34:29.206Z,6.20
2018-09-26T04:35:29.185Z,5.50
2018-09-26T04:36:29.178Z,5.70
2018-09-26T04:37:29.172Z,5.40
2018-09-26T04:38:29.225Z,5.20
2018-09-26T04:39:29.160Z,5.30
2018-09-26T04:40:29.147Z,5.50
2018-09-26T04:41:29.144Z,5.60
2018-09-26T04:42:29.137Z,6.30
2018-09-26T04:43:29.155Z,6.20
2018-09-26T04:44:29.117Z,5.70
2018-09-26T04:45:29.109Z,4.50
2018-09-26T04:46:29.102Z,8.00
2018-09-26T04:47:29.096Z,6.90
2018-09-26T04:48:29.087Z,6.30
2018-09-26T04:49:29.079Z,5.20
2018-09-26T04:50:29.073Z,5.00
2018-09-26T04:51:29.066Z,6.70
2018-09-26T04:52:29.061Z,4.80
2018-09-26T04:53:29.050Z,5.50
2018-09-26T04:54:29.046Z,6.00
2018-09-26T04:55:29.042Z,6.70
2018-09-26T04:56:29.029Z,6.60
2018-09-26T04:57:29.019Z,6.40
2018-09-26T04:58:29.013Z,5.60
2018-09-26T04:59:29.004Z,3.80
2018-09-26T05:00:28.997Z,5.50
2018-09-26T05:01:28.989Z,6.10
2018-09-26T05:02:28.983Z,4.80
2018-09-26T05:03:28.976Z,5.50
2018-09-26T05:04:28.969Z,6.50
2018-09-26T05:05:28.961Z,7.10
2018-09-26T05:06:28.953Z,7.60
2018-09-26T05:07:28.945Z,5.00
2018-09-26T05:08:28.936Z,4.80
2018-09-26T05:09:28.931Z,5.90
2018-09-26T05:10:28.922Z,4.50
2018-09-26T05:11:28.916Z,5.10
2018-09-26T05:12:28.907Z,3.70
2018-09-26T05:13:28.899Z,5.70
2018-09-26T05:14:28.892Z,5.60
2018-09-26T05:15:28.890Z,7.00
2018-09-26T05:16:28.881Z,5.00
2018-09-26T05:17:28.871Z,5.20
2018-09-26T05:18:28.863Z,4.90
2018-09-26T05:19:28.856Z,5.70
2018-09-26T05:20:28.849Z,5.40
2018-09-26T05:21:28.841Z,5.50
2018-09-26T05:22:28.835Z,5.40
2018-09-26T05:23:28.826Z,6.80
2018-09-26T05:24:28.817Z,6.40
2018-09-26T05:25:28.809Z,4.30
2018-09-26T05:26:28.804Z,4.80
2018-09-26T05:27:28.796Z,4.70
2018-09-26T05:28:28.787Z,4.70
2018-09-26T05:29:28.781Z,6.50
2018-09-26T05:30:28.803Z,4.50
2018-09-26T05:31:28.767Z,4.10
2018-09-26T05:32:28.760Z,6.20
2018-09-26T05:33:28.756Z,5.40
2018-09-26T05:34:28.747Z,5.00
2018-09-26T05:35:28.744Z,6.40
2018-09-26T05:36:28.729Z,5.40
2018-09-26T05:37:28.726Z,4.20
2018-09-26T05:38:28.716Z,6.80
2018-09-26T05:39:28.710Z,6.40
2018-09-26T05:40:28.704Z,5.30
2018-09-26T05:41:28.696Z,5.90
2018-09-26T05:42:28.686Z,3.90
2018-09-26T05:43:28.685Z,5.90
2018-09-26T05:44:28.671Z,4.40
2018-09-26T05:45:28.667Z,4.40
2018-09-26T05:46:29.372Z,7.00
2018-09-26T05:47:28.653Z,4.80
2018-09-26T05:48:28.646Z,6.10
2018-09-26T05:49:28.639Z,5.50
2018-09-26T05:50:28.635Z,6.20
2018-09-26T05:51:28.628Z,5.90
2018-09-26T05:52:28.616Z,5.10
2018-09-26T05:53:28.634Z,4.80
2018-09-26T05:54:28.601Z,7.10
2018-09-26T05:55:28.596Z,6.10
2018-09-26T05:56:28.591Z,6.10
2018-09-26T05:57:28.584Z,8.70
2018-09-26T05:58:28.579Z,5.70
2018-09-26T05:59:28.579Z,8.20
2018-09-26T06:00:28.563Z,7.20
2018-09-26T06:01:28.560Z,5.10
2018-09-26T06:02:28.554Z,6.20
2018-09-26T06:03:28.545Z,6.50
2018-09-26T06:04:28.536Z,6.70
2018-09-26T06:05:28.536Z,5.80
2018-09-26T06:06:28.529Z,6.80
2018-09-26T06:07:28.518Z,8.10
2018-09-26T06:08:28.511Z,6.60
2018-09-26T06:09:28.505Z,6.30
2018-09-26T06:10:28.498Z,6.30
2018-09-26T06:11:28.496Z,6.70
2018-09-26T06:12:28.484Z,7.50
2018-09-26T06:13:28.480Z,8.50
2018-09-26T06:14:28.474Z,8.10
2018-09-26T06:15:28.468Z,9.40
2018-09-26T06:16:28.463Z,7.10
2018-09-26T06:17:28.454Z,6.80
2018-09-26T06:18:28.451Z,6.60
2018-09-26T06:19:28.444Z,7.20
2018-09-26T06:20:28.437Z,6.50
2018-09-26T06:21:28.434Z,7.20
2018-09-26T06:22:28.428Z,8.30
2018-09-26T06:23:28.421Z,7.80
2018-09-26T06:24:28.464Z,7.50
2018-09-26T06:25:28.410Z,9.90
2018-09-26T06:26:28.402Z,9.10
2018-09-26T06:27:28.399Z,10.00
2018-09-26T06:28:28.391Z,8.40
2018-09-26T06:29:28.387Z,5.30
2018-09-26T06:30:28.378Z,5.70
2018-09-26T06:31:28.373Z,6.40
2018-09-26T06:32:28.365Z,4.80
2018-09-26T06:33:28.359Z,9.00
2018-09-26T06:34:28.356Z,6.30
2018-09-26T06:35:28.346Z,5.90
2018-09-26T06:36:28.343Z,8.20
2018-09-26T06:37:28.341Z,5.10
2018-09-26T06:38:28.337Z,5.80
2018-09-26T06:39:28.330Z,6.00
2018-09-26T06:40:28.436Z,6.10
2018-09-26T06:41:28.318Z,5.90
2018-09-26T06:42:28.311Z,6.70
2018-09-26T06:43:28.304Z,5.90
2018-09-26T06:44:28.300Z,6.00
2018-09-26T06:45:28.292Z,5.90
2018-09-26T06:46:28.289Z,6.80
2018-09-26T06:47:28.317Z,6.70
2018-09-26T06:48:28.273Z,9.20
2018-09-26T06:49:28.270Z,6.70
2018-09-26T06:50:28.269Z,8.00
2018-09-26T06:51:28.265Z,6.60
2018-09-26T06:52:28.254Z,9.80
2018-09-26T06:53:28.248Z,7.90
2018-09-26T06:54:28.246Z,7.40
2018-09-26T06:55:28.238Z,5.80
2018-09-26T06:56:28.234Z,8.80
2018-09-26T06:57:28.227Z,6.60
2018-09-26T06:58:28.218Z,7.90
2018-09-26T06:59:28.215Z,9.40
2018-09-26T07:00:28.221Z,8.10
2018-09-26T07:01:28.207Z,6.50
2018-09-26T07:02:28.202Z,8.90
2018-09-26T07:03:28.197Z,6.60
2018-09-26T07:04:28.192Z,8.70
2018-09-26T07:05:28.187Z,7.40
2018-09-26T07:06:28.182Z,7.40
2018-09-26T07:07:28.174Z,7.70
2018-09-26T07:08:28.162Z,6.30
2018-09-26T07:09:28.162Z,6.90
2018-09-26T07:10:28.165Z,8.00
2018-09-26T07:11:28.158Z,6.20
2018-09-26T07:12:28.145Z,7.90
2018-09-26T07:13:28.145Z,6.80
2018-09-26T07:14:28.143Z,6.80
2018-09-26T07:15:28.134Z,6.60
2018-09-26T07:16:28.128Z,8.70
2018-09-26T07:17:28.122Z,5.90
2018-09-26T07:18:28.118Z,9.00
2018-09-26T07:19:28.115Z,8.40
2018-09-26T07:20:28.107Z,4.70
2018-09-26T07:21:28.103Z,7.60
2018-09-26T07:22:28.100Z,5.20
2018-09-26T07:23:28.093Z,5.60
2018-09-26T07:24:28.089Z,5.30
2018-09-26T07:25:28.083Z,6.40
2018-09-26T07:26:28.080Z,5.70
2018-09-26T07:27:28.080Z,5.90
2018-09-26T07:28:28.073Z,6.50
2018-09-26T07:29:28.071Z,5.90
2018-09-26T07:30:28.061Z,6.50
2018-09-26T07:31:28.078Z,5.40
2018-09-26T07:32:28.049Z,4.20
2018-09-26T07:33:28.048Z,5.50
2018-09-26T07:34:28.042Z,6.50
2018-09-26T07:35:28.041Z,6.60
2018-09-26T07:36:28.034Z,4.90
2018-09-26T07:37:28.028Z,7.70
2018-09-26T07:38:28.042Z,6.00
2018-09-26T07:39:28.016Z,4.80
2018-09-26T07:40:28.015Z,4.30
2018-09-26T07:41:28.013Z,4.60
2018-09-26T07:42:28.009Z,4.30
2018-09-26T07:43:28.001Z,4.60
2018-09-26T07:44:27.998Z,5.20
2018-09-26T07:45:28.030Z,4.60
2018-09-26T07:46:27.993Z,5.50
2018-09-26T07:47:27.988Z,4.20
2018-09-26T07:48:27.980Z,8.10
2018-09-26T07:49:27.980Z,6.20
2018-09-26T07:50:27.973Z,5.00
2018-09-26T07:51:27.974Z,4.10
2018-09-26T07:52:27.965Z,4.10
2018-09-26T07:53:27.960Z,4.60
2018-09-26T07:54:27.959Z,4.90
2018-09-26T07:55:27.952Z,4.90
2018-09-26T07:56:27.953Z,4.20
2018-09-26T07:57:27.946Z,4.80
2018-09-26T07:58:27.941Z,4.70
2018-09-26T07:59:27.939Z,4.30
2018-09-26T08:00:28.845Z,3.80
2018-09-26T08:01:27.930Z,6.50
2018-09-26T08:02:27.931Z,5.00
2018-09-26T08:03:27.922Z,5.10
2018-09-26T08:04:27.919Z,6.10
2018-09-26T08:05:27.928Z,4.20
2018-09-26T08:06:27.912Z,4.40
2018-09-26T08:07:27.914Z,4.90
2018-09-26T08:08:27.908Z,4.20
2018-09-26T08:09:27.902Z,4.70
2018-09-26T08:10:28.832Z,5.80
2018-09-26T08:11:27.998Z,5.20
2018-09-26T08:12:27.890Z,3.70
2018-09-26T08:13:27.890Z,4.40
2018-09-26T08:14:27.884Z,4.60
2018-09-26T08:15:27.880Z,2.60
2018-09-26T08:16:27.876Z,4.60
2018-09-26T08:17:27.892Z,5.30
2018-09-26T08:18:27.897Z,3.40
2018-09-26T08:19:27.865Z,5.30
2018-09-26T08:20:27.869Z,4.60
2018-09-26T08:21:27.865Z,3.60
2018-09-26T08:22:27.858Z,4.30
2018-09-26T08:23:27.874Z,4.90
2018-09-26T08:24:27.847Z,4.00
2018-09-26T08:25:27.841Z,4.40
2018-09-26T08:26:27.840Z,5.00
2018-09-26T08:27:27.840Z,5.20
2018-09-26T08:28:27.832Z,4.40
2018-09-26T08:29:28.339Z,3.50
2018-09-26T08:30:27.827Z,3.70
2018-09-26T08:31:27.830Z,3.30
2018-09-26T08:32:27.820Z,3.70
2018-09-26T08:33:27.813Z,2.80
2018-09-26T08:34:27.812Z,4.40
2018-09-26T08:35:27.809Z,3.20
2018-09-26T08:36:27.803Z,5.90
2018-09-26T08:37:27.800Z,4.90
2018-09-26T08:38:27.794Z,2.70
2018-09-26T08:39:27.832Z,3.00
2018-09-26T08:40:27.790Z,3.60
2018-09-26T08:41:27.800Z,3.30
2018-09-26T08:42:27.784Z,4.40
2018-09-26T08:43:27.787Z,3.40
2018-09-26T08:44:27.780Z,3.50
2018-09-26T08:45:27.778Z,4.90
2018-09-26T08:46:27.774Z,3.90
2018-09-26T08:47:27.991Z,4.00
2018-09-26T08:48:27.764Z,3.70
2018-09-26T08:49:27.765Z,3.00
2018-09-26T08:50:27.762Z,3.40
2018-09-26T08:51:27.757Z,4.00
2018-09-26T08:52:27.755Z,3.40
2018-09-26T08:53:27.754Z,3.00
2018-09-26T08:54:27.751Z,3.40
2018-09-26T08:55:27.754Z,3.80
2018-09-26T08:56:27.744Z,3.20
2018-09-26T08:57:27.745Z,4.10
2018-09-26T08:58:27.741Z,3.50
2018-09-26T08:59:27.738Z,4.00
2018-09-26T09:00:27.736Z,3.50
2018-09-26T09:01:27.733Z,2.90
2018-09-26T09:02:27.731Z,5.30
2018-09-26T09:03:27.732Z,4.80
2018-09-26T09:04:27.795Z,3.30
2018-09-26T09:05:27.723Z,2.50
2018-09-26T09:06:27.721Z,4.10
2018-09-26T09:07:27.719Z,3.00
2018-09-26T09:08:27.712Z,3.60
2018-09-26T09:09:27.718Z,4.20
2018-09-26T09:10:27.712Z,3.80
2018-09-26T09:11:27.738Z,3.40
2018-09-26T09:12:27.708Z,4.10
2018-09-26T09:13:27.703Z,3.50
2018-09-26T09:14:27.769Z,3.20
2018-09-26T09:15:28.451Z,4.60
2018-09-26T09:16:27.696Z,4.20
2018-09-26T09:17:27.695Z,3.80
2018-09-26T09:18:27.693Z,3.20
2018-09-26T09:19:27.691Z,3.70
2018-09-26T09:20:27.686Z,3.30
2018-09-26T09:21:27.684Z,3.80
2018-09-26T09:22:27.681Z,3.00
2018-09-26T09:23:27.681Z,4.80
2018-09-26T09:24:27.680Z,5.80
2018-09-26T09:25:27.674Z,3.60
2018-09-26T09:26:27.671Z,4.70
2018-09-26T09:27:27.750Z,3.90
2018-09-26T09:28:27.680Z,3.60
2018-09-26T09:29:27.663Z,3.30
2018-09-26T09:30:27.662Z,3.80
2018-09-26T09:31:27.660Z,3.20
2018-09-26T09:32:27.657Z,3.80
2018-09-26T09:33:27.652Z,3.70
2018-09-26T09:34:27.651Z,2.80
2018-09-26T09:35:28.358Z,3.50
2018-09-26T09:36:27.705Z,2.40
2018-09-26T09:37:27.644Z,2.40
2018-09-26T09:38:27.641Z,2.90
2018-09-26T09:39:27.642Z,3.50
2018-09-26T09:40:27.637Z,4.20
2018-09-26T09:41:27.634Z,2.80
2018-09-26T09:42:27.632Z,3.20
2018-09-26T09:43:27.630Z,2.60
2018-09-26T09:44:27.675Z,3.10
2018-09-26T09:45:27.631Z,2.40
2018-09-26T09:46:27.625Z,3.70
2018-09-26T09:47:27.619Z,3.00
2018-09-26T09:48:27.622Z,3.40
2018-09-26T09:49:27.618Z,4.30
2018-09-26T09:50:27.619Z,4.00
2018-09-26T09:51:27.672Z,2.60
2018-09-26T09:52:27.615Z,3.80
2018-09-26T09:53:27.606Z,3.40
2018-09-26T09:54:27.611Z,3.20
2018-09-26T09:55:27.604Z,3.00
2018-09-26T09:56:27.604Z,2.80
2018-09-26T09:57:27.599Z,3.20
2018-09-26T09:58:27.597Z,3.70
2018-09-26T09:59:27.595Z,3.00
2018-09-26T10:00:27.598Z,2.60
2018-09-26T10:01:27.593Z,3.20
2018-09-26T10:02:27.690Z,3.40
2018-09-26T10:03:27.590Z,3.10
2018-09-26T10:04:27.584Z,4.50
2018-09-26T10:05:27.583Z,4.60
2018-09-26T10:06:27.640Z,3.40
2018-09-26T10:07:27.581Z,3.60
2018-09-26T10:08:27.576Z,2.80
2018-09-26T10:09:27.578Z,3.80
2018-09-26T10:10:27.724Z,3.30
2018-09-26T10:11:27.572Z,3.50
2018-09-26T10:12:27.573Z,2.10
2018-09-26T10:13:27.569Z,3.00
2018-09-26T10:14:28.430Z,3.00
2018-09-26T10:15:27.562Z,5.40
2018-09-26T10:16:27.630Z,3.20
2018-09-26T10:17:27.612Z,3.10
2018-09-26T10:18:27.559Z,2.40
2018-09-26T10:19:27.558Z,3.00
2018-09-26T10:20:27.557Z,4.10
2018-09-26T10:21:27.585Z,3.20
2018-09-26T10:22:27.551Z,2.60
2018-09-26T10:23:27.549Z,3.80
2018-09-26T10:24:27.545Z,3.20
2018-09-26T10:25:27.548Z,2.40
2018-09-26T10:26:27.549Z,4.10
2018-09-26T10:27:27.544Z,2.70
2018-09-26T10:28:27.544Z,2.50
2018-09-26T10:29:27.541Z,3.70
2018-09-26T10:30:27.541Z,5.00
2018-09-26T10:31:27.531Z,3.90
2018-09-26T10:32:27.534Z,4.30
2018-09-26T10:33:27.533Z,2.60
2018-09-26T10:34:27.531Z,4.20
2018-09-26T10:35:27.532Z,4.20
2018-09-26T10:36:27.529Z,3.70
2018-09-26T10:37:27.528Z,3.50
2018-09-26T10:38:27.527Z,3.10
2018-09-26T10:39:27.526Z,3.00
2018-09-26T10:40:27.523Z,4.10
2018-09-26T10:41:27.522Z,2.70
2018-09-26T10:42:27.521Z,3.70
2018-09-26T10:43:27.523Z,3.00
2018-09-26T10:44:27.515Z,4.30
2018-09-26T10:45:27.520Z,3.10
2018-09-26T10:46:27.543Z,2.60
2018-09-26T10:47:27.511Z,2.50
2018-09-26T10:48:27.519Z,2.80
2018-09-26T10:49:27.513Z,3.60
2018-09-26T10:50:27.543Z,2.60
2018-09-26T10:51:27.509Z,1.80
2018-09-26T10:52:27.508Z,3.80
2018-09-26T10:53:27.506Z,2.90
2018-09-26T10:54:27.507Z,3.50
2018-09-26T10:55:27.503Z,4.00
2018-09-26T10:56:27.525Z,2.60
2018-09-26T10:57:27.502Z,2.90
2018-09-26T10:58:27.498Z,4.20
2018-09-26T10:59:27.505Z,2.70
2018-09-26T11:00:27.497Z,3.50
2018-09-26T11:01:27.504Z,3.00
2018-09-26T11:02:27.547Z,2.50
2018-09-26T11:03:27.493Z,2.70
2018-09-26T11:04:27.493Z,2.70
2018-09-26T11:05:27.490Z,2.30
2018-09-26T11:06:27.493Z,2.20
2018-09-26T11:07:27.491Z,4.20
2018-09-26T11:08:27.486Z,2.40
2018-09-26T11:09:27.487Z,4.00
2018-09-26T11:10:27.555Z,3.00
2018-09-26T11:11:27.487Z,3.10
2018-09-26T11:12:27.526Z,4.00
2018-09-26T11:13:27.478Z,2.60
2018-09-26T11:14:27.573Z,5.90
2018-09-26T11:15:27.527Z,3.70
2018-09-26T11:16:27.568Z,2.70
2018-09-26T11:17:27.475Z,3.10
2018-09-26T11:18:27.471Z,2.00
2018-09-26T11:19:27.474Z,3.80
2018-09-26T11:20:27.473Z,1.50
2018-09-26T11:21:27.470Z,2.80
2018-09-26T11:22:27.463Z,2.30
2018-09-26T11:23:27.466Z,3.90
2018-09-26T11:24:27.463Z,3.30
2018-09-26T11:25:27.464Z,2.30
2018-09-26T11:26:27.517Z,2.90
2018-09-26T11:27:27.465Z,3.00
2018-09-26T11:28:27.540Z,1.60
2018-09-26T11:29:27.454Z,4.10
2018-09-26T11:30:27.463Z,3.30
2018-09-26T11:31:27.466Z,2.50
2018-09-26T11:32:27.570Z,3.40
2018-09-26T11:33:27.523Z,1.90
2018-09-26T11:34:27.525Z,2.60
2018-09-26T11:35:27.450Z,3.70
2018-09-26T11:36:27.452Z,3.20
2018-09-26T11:37:27.443Z,1.80
2018-09-26T11:38:27.499Z,1.70
2018-09-26T11:39:27.446Z,2.10
2018-09-26T11:40:27.444Z,3.60
2018-09-26T11:41:27.446Z,2.10
2018-09-26T11:42:27.440Z,2.40
2018-09-26T11:43:28.397Z,3.70
2018-09-26T11:44:27.465Z,2.60
2018-09-26T11:45:27.439Z,3.50
2018-09-26T11:46:27.446Z,2.90
2018-09-26T11:47:27.446Z,3.10
2018-09-26T11:48:27.434Z,2.40
2018-09-26T11:49:27.434Z,2.60
2018-09-26T11:50:27.433Z,4.30
2018-09-26T11:51:27.431Z,3.20
2018-09-26T11:52:27.489Z,2.20
2018-09-26T11:53:27.434Z,3.30
2018-09-26T11:54:27.428Z,3.00
2018-09-26T11:55:27.428Z,2.20
2018-09-26T11:56:27.452Z,2.30
2018-09-26T11:57:27.424Z,4.30
2018-09-26T11:58:27.629Z,2.10
2018-09-26T11:59:27.533Z,2.10
2018-09-26T12:00:27.975Z,3.70
2018-09-26T12:01:27.512Z,2.40
2018-09-26T12:02:27.592Z,2.70
2018-09-26T12:03:27.421Z,3.70
2018-09-26T12:04:27.419Z,3.50
2018-09-26T12:05:27.414Z,3.30
2018-09-26T12:06:27.418Z,2.10
2018-09-26T12:07:27.490Z,2.80
2018-09-26T12:08:27.544Z,2.50
2018-09-26T12:09:27.416Z,3.40
2018-09-26T12:10:27.411Z,6.40
2018-09-26T12:11:27.413Z,2.40
2018-09-26T12:12:27.414Z,2.50
2018-09-26T12:13:27.415Z,3.40
2018-09-26T12:14:27.411Z,2.30
2018-09-26T12:15:27.419Z,2.20
2018-09-26T12:16:27.417Z,2.50
2018-09-26T12:17:27.409Z,3.70
2018-09-26T12:18:27.451Z,3.10
2018-09-26T12:19:27.606Z,3.80
2018-09-26T12:20:27.409Z,4.30
2018-09-26T12:21:30.593Z,3.60
2018-09-26T12:22:27.464Z,2.20
2018-09-26T12:23:27.404Z,2.50
2018-09-26T12:24:27.407Z,3.60
2018-09-26T12:25:27.400Z,4.20
2018-09-26T12:26:27.404Z,3.00
2018-09-26T12:27:27.406Z,2.90
2018-09-26T12:28:27.552Z,3.00
2018-09-26T12:29:27.399Z,2.40
2018-09-26T12:30:27.456Z,4.10
2018-09-26T12:31:27.401Z,2.10
2018-09-26T12:32:27.403Z,2.90
2018-09-26T12:33:27.399Z,2.70
2018-09-26T12:34:27.399Z,5.40
2018-09-26T12:35:27.397Z,2.80
2018-09-26T12:36:27.453Z,2.50
2018-09-26T12:37:27.396Z,4.20
2018-09-26T12:38:27.398Z,2.00
2018-09-26T12:39:27.392Z,1.80
2018-09-26T12:40:27.394Z,3.80
2018-09-26T12:41:27.397Z,3.20
2018-09-26T12:42:27.397Z,2.60
2018-09-26T12:43:27.395Z,2.90
2018-09-26T12:44:27.392Z,3.40
2018-09-26T12:45:27.394Z,3.70
2018-09-26T12:46:27.394Z,3.70
2018-09-26T12:47:27.406Z,3.80
2018-09-26T12:48:27.444Z,2.40
2018-09-26T12:49:27.393Z,2.70
2018-09-26T12:50:27.391Z,3.60
2018-09-26T12:51:27.408Z,3.90
2018-09-26T12:52:27.392Z,4.00
2018-09-26T12:53:27.437Z,2.50
2018-09-26T12:54:27.392Z,4.70
2018-09-26T12:55:27.393Z,2.80
2018-09-26T12:56:27.390Z,4.30
2018-09-26T12:57:27.478Z,3.20
2018-09-26T12:58:27.409Z,2.50
2018-09-26T12:59:27.389Z,3.10
2018-09-26T13:00:27.404Z,3.60
2018-09-26T13:01:27.919Z,4.00
2018-09-26T13:02:27.410Z,3.90
2018-09-26T13:03:27.391Z,4.70
2018-09-26T13:04:27.507Z,2.90
2018-09-26T13:05:27.388Z,3.00
2018-09-26T13:06:27.388Z,3.90
2018-09-26T13:07:27.390Z,3.30
2018-09-26T13:08:27.459Z,2.90
2018-09-26T13:09:27.391Z,3.60
2018-09-26T13:10:27.387Z,3.20
2018-09-26T13:11:27.388Z,3.80
2018-09-26T13:12:27.387Z,4.40
2018-09-26T13:13:27.386Z,4.20
2018-09-26T13:14:27.393Z,3.20
2018-09-26T13:15:27.385Z,3.50
2018-09-26T13:16:27.385Z,4.80
2018-09-26T13:17:27.389Z,3.80
2018-09-26T13:18:27.392Z,2.80